Time;durP1;ratioP1;P1;durP2;ratioP2;P2;SDS_P1;SDS_P2;PMS_P1;PMS_P2;Temp;Humidity;BMP_temperature;BMP_pressure;BME280_temperature;BME280_humidity;BME280_pressure;Samples;Min_cycle;Max_cycle;Signal;HPM_P1;HPM_P2
2023/08/10 00:00:32;;;;;;;;;18.25;16.50;;;;;;;;5053387;28;52053;-59
2023/08/10 00:02:57;;;;;;;;;16.75;16.50;;;;;;;;5053763;28;50942;-59
2023/08/10 00:05:22;;;;;;;;;15.75;14.25;;;;;;;;5053196;28;50934;-59
2023/08/10 00:07:47;;;;;;;;;15.75;14.75;;;;;;;;5052633;28;50879;-59
2023/08/10 00:10:13;;;;;;;;;12.33;11.67;;;;;;;;5052847;28;51783;-59
2023/08/10 00:12:38;;;;;;;;;13.00;13.00;;;;;;;;5053275;28;50896;-59
2023/08/10 00:15:04;;;;;;;;;13.75;13.50;;;;;;;;5052178;28;51109;-59
2023/08/10 00:17:29;;;;;;;;;13.67;12.67;;;;;;;;5053530;28;51312;-60
2023/08/10 00:19:54;;;;;;;;;14.75;13.50;;;;;;;;5048051;28;51688;-60
2023/08/10 00:22:20;;;;;;;;;12.67;12.67;;;;;;;;5053417;28;51128;-60
2023/08/10 00:24:45;;;;;;;;;15.33;12.33;;;;;;;;5053185;28;50907;-59
2023/08/10 00:27:10;;;;;;;;;12.67;12.33;;;;;;;;5069120;28;51440;-60
2023/08/10 00:29:35;;;;;;;;;11.25;11.25;;;;;;;;5051713;28;53693;-59
2023/08/10 00:32:01;;;;;;;;;12.00;12.00;;;;;;;;5053543;28;51386;-59
2023/08/10 00:34:26;;;;;;;;;11.00;10.50;;;;;;;;5052933;28;51286;-60
2023/08/10 00:36:51;;;;;;;;;17.25;15.00;;;;;;;;5053355;28;51139;-59
2023/08/10 00:39:19;;;;;;;;;14.00;14.00;;;;;;;;5052896;28;51106;-60
2023/08/10 00:41:44;;;;;;;;;14.33;14.33;;;;;;;;5052997;28;51107;-59
2023/08/10 00:44:09;;;;;;;;;11.00;10.33;;;;;;;;5052838;28;51303;-59
2023/08/10 00:46:35;;;;;;;;;15.50;15.25;;;;;;;;5053023;28;51176;-59
2023/08/10 00:49:00;;;;;;;;;13.00;13.00;;;;;;;;5052761;28;50951;-58
2023/08/10 00:51:26;;;;;;;;;13.00;13.00;;;;;;;;5052573;28;51128;-58
2023/08/10 00:53:51;;;;;;;;;14.75;14.50;;;;;;;;5053238;28;50872;-58
2023/08/10 00:56:17;;;;;;;;;14.00;14.00;;;;;;;;5053090;28;51370;-58
2023/08/10 00:58:42;;;;;;;;;15.00;14.33;;;;;;;;5052557;28;50938;-59
2023/08/10 01:01:07;;;;;;;;;14.33;12.00;;;;;;;;5053036;28;50925;-58
2023/08/10 01:03:32;;;;;;;;;14.00;14.00;;;;;;;;5053141;28;51171;-58
2023/08/10 01:05:57;;;;;;;;;11.00;11.00;;;;;;;;5052428;28;51137;-58
2023/08/10 01:08:42;;;;;;;;;13.00;12.00;;;;;;;;5052271;28;51809;-60
2023/08/10 01:11:07;;;;;;;;;13.67;12.67;;;;;;;;5046468;28;51016;-58
2023/08/10 01:13:40;;;;;;;;;14.50;13.25;;;;;;;;5052790;28;51009;-59
2023/08/10 01:16:08;;;;;;;;;12.00;12.00;;;;;;;;5052991;28;51154;-58
2023/08/10 01:18:33;;;;;;;;;12.67;11.67;;;;;;;;5053671;28;51740;-59
2023/08/10 01:20:59;;;;;;;;;13.67;12.33;;;;;;;;5055823;28;51187;-60
2023/08/10 01:23:34;;;;;;;;;11.67;11.00;;;;;;;;5056127;28;50938;-60
2023/08/10 01:25:59;;;;;;;;;10.00;9.00;;;;;;;;5056448;28;51056;-60
2023/08/10 01:28:26;;;;;;;;;12.00;11.33;;;;;;;;5055672;28;51035;-60
2023/08/10 01:30:52;;;;;;;;;14.33;12.00;;;;;;;;5056106;28;51139;-59
2023/08/10 01:33:18;;;;;;;;;15.00;13.00;;;;;;;;5055697;28;50992;-58
2023/08/10 01:35:44;;;;;;;;;12.00;12.00;;;;;;;;5055822;28;51184;-59
2023/08/10 01:38:09;;;;;;;;;15.67;13.00;;;;;;;;5055467;28;51876;-60
2023/08/10 01:40:34;;;;;;;;;11.33;10.67;;;;;;;;5055752;28;51003;-59
2023/08/10 01:43:00;;;;;;;;;11.67;10.00;;;;;;;;5055892;28;51010;-59
2023/08/10 01:45:25;;;;;;;;;13.00;13.00;;;;;;;;5055972;28;51326;-59
2023/08/10 01:47:53;;;;;;;;;12.00;11.00;;;;;;;;5055474;28;51934;-59
2023/08/10 01:50:19;;;;;;;;;13.00;13.00;;;;;;;;5055493;28;50911;-59
2023/08/10 01:52:51;;;;;;;;;13.00;12.50;;;;;;;;5055518;28;50932;-59
2023/08/10 01:55:17;;;;;;;;;17.00;15.50;;;;;;;;5055842;28;50880;-59
2023/08/10 01:57:43;;;;;;;;;15.50;15.00;;;;;;;;5053806;28;53908;-59
2023/08/10 02:00:09;;;;;;;;;13.67;13.67;;;;;;;;5055488;28;50907;-59
2023/08/10 02:02:34;;;;;;;;;13.00;12.33;;;;;;;;5055565;28;51070;-59
2023/08/10 02:04:59;;;;;;;;;12.67;12.67;;;;;;;;5055405;28;50845;-59
2023/08/10 02:07:25;;;;;;;;;13.00;12.00;;;;;;;;5055161;28;51979;-59
2023/08/10 02:09:50;;;;;;;;;12.00;11.25;;;;;;;;5055033;28;50976;-59
2023/08/10 02:12:15;;;;;;;;;13.67;12.33;;;;;;;;5055431;28;50867;-59
2023/08/10 02:14:40;;;;;;;;;15.75;14.50;;;;;;;;5055548;28;50851;-59
2023/08/10 02:17:05;;;;;;;;;11.00;11.00;;;;;;;;5055006;28;51871;-58
2023/08/10 02:19:31;;;;;;;;;13.67;11.67;;;;;;;;5055044;28;50873;-59
2023/08/10 02:21:56;;;;;;;;;13.33;12.00;;;;;;;;5051837;28;51038;-59
2023/08/10 02:24:22;;;;;;;;;14.33;12.00;;;;;;;;5055523;28;51202;-59
2023/08/10 02:26:47;;;;;;;;;12.33;11.00;;;;;;;;5054781;28;51772;-59
2023/08/10 02:29:12;;;;;;;;;13.00;12.33;;;;;;;;5054556;28;51252;-59
2023/08/10 02:31:37;;;;;;;;;14.33;11.67;;;;;;;;5054515;28;51222;-59
2023/08/10 02:34:03;;;;;;;;;11.00;11.00;;;;;;;;5055392;28;50918;-59
2023/08/10 02:36:28;;;;;;;;;11.00;10.00;;;;;;;;5054371;28;51226;-59
2023/08/10 02:38:54;;;;;;;;;10.33;10.33;;;;;;;;5054864;28;51167;-59
2023/08/10 02:41:19;;;;;;;;;10.33;10.33;;;;;;;;5055135;28;51155;-59
2023/08/10 02:43:44;;;;;;;;;11.00;10.67;;;;;;;;5055344;28;51301;-59
2023/08/10 02:46:09;;;;;;;;;12.67;11.00;;;;;;;;5054562;28;51225;-58
2023/08/10 02:48:34;;;;;;;;;11.00;10.33;;;;;;;;5054881;28;51081;-58
2023/08/10 02:50:59;;;;;;;;;10.00;10.00;;;;;;;;5054620;28;51008;-58
2023/08/10 02:53:25;;;;;;;;;13.00;12.00;;;;;;;;5055088;28;50906;-58
2023/08/10 02:55:50;;;;;;;;;11.67;11.67;;;;;;;;5054356;28;51121;-58
2023/08/10 02:58:15;;;;;;;;;12.33;10.67;;;;;;;;5054908;28;51013;-58
2023/08/10 03:00:41;;;;;;;;;11.33;10.00;;;;;;;;5054683;28;51041;-58
2023/08/10 03:03:06;;;;;;;;;11.00;11.00;;;;;;;;5054895;28;50968;-58
2023/08/10 03:05:31;;;;;;;;;11.00;11.00;;;;;;;;5053973;28;51904;-58
2023/08/10 03:07:56;;;;;;;;;10.00;10.00;;;;;;;;5054198;28;51044;-58
2023/08/10 03:10:22;;;;;;;;;11.00;11.00;;;;;;;;5070245;28;52259;-58
2023/08/10 03:12:47;;;;;;;;;9.33;9.33;;;;;;;;5054831;28;51065;-58
2023/08/10 03:15:12;;;;;;;;;12.00;12.00;;;;;;;;5054040;28;51067;-58
2023/08/10 03:17:39;;;;;;;;;10.00;9.33;;;;;;;;5054389;28;50986;-58
2023/08/10 03:20:12;;;;;;;;;9.33;9.00;;;;;;;;5054068;28;50951;-60
2023/08/10 03:22:37;;;;;;;;;7.33;7.33;;;;;;;;5054384;28;50910;-60
2023/08/10 03:25:02;;;;;;;;;10.33;9.33;;;;;;;;5053728;28;50941;-59
2023/08/10 03:27:27;;;;;;;;;10.00;10.00;;;;;;;;5054108;28;50843;-59
2023/08/10 03:29:53;;;;;;;;;11.00;9.67;;;;;;;;5054143;28;51077;-59
2023/08/10 03:32:18;;;;;;;;;10.00;9.00;;;;;;;;5054559;28;51150;-58
2023/08/10 03:34:43;;;;;;;;;10.67;9.33;;;;;;;;5053410;28;51027;-58
2023/08/10 03:37:08;;;;;;;;;8.33;8.00;;;;;;;;5053960;28;51115;-59
2023/08/10 03:39:33;;;;;;;;;10.00;9.00;;;;;;;;5054199;28;50822;-58
2023/08/10 03:41:58;;;;;;;;;9.33;9.00;;;;;;;;5054305;28;51060;-59
2023/08/10 03:44:24;;;;;;;;;8.33;8.33;;;;;;;;5053703;28;51929;-58
2023/08/10 03:46:49;;;;;;;;;9.00;8.00;;;;;;;;5053962;28;51112;-58
2023/08/10 03:49:14;;;;;;;;;8.00;8.00;;;;;;;;5053656;28;50915;-58
2023/08/10 03:51:39;;;;;;;;;9.33;9.33;;;;;;;;5053950;28;51061;-58
2023/08/10 03:54:05;;;;;;;;;9.00;9.00;;;;;;;;5053385;28;50880;-58
2023/08/10 03:56:30;;;;;;;;;8.00;8.00;;;;;;;;5053988;28;50989;-58
2023/08/10 03:58:55;;;;;;;;;14.00;12.33;;;;;;;;5053735;28;50801;-58
2023/08/10 04:01:22;;;;;;;;;9.33;8.00;;;;;;;;5054021;28;50827;-59
2023/08/10 04:03:47;;;;;;;;;11.00;11.00;;;;;;;;5053477;28;52898;-59
2023/08/10 04:06:12;;;;;;;;;11.67;11.67;;;;;;;;5053245;28;50974;-59
2023/08/10 04:08:37;;;;;;;;;8.00;8.00;;;;;;;;5053518;28;51136;-59
2023/08/10 04:11:02;;;;;;;;;10.67;10.67;;;;;;;;5053847;28;51319;-59
2023/08/10 04:13:28;;;;;;;;;8.67;8.00;;;;;;;;5053358;28;52020;-59
2023/08/10 04:15:53;;;;;;;;;10.00;9.00;;;;;;;;5053450;28;51072;-59
2023/08/10 04:18:18;;;;;;;;;9.00;8.00;;;;;;;;5053788;28;50968;-59
2023/08/10 04:20:44;;;;;;;;;8.00;8.00;;;;;;;;5053566;28;50888;-59
2023/08/10 04:23:10;;;;;;;;;8.67;8.00;;;;;;;;5049695;28;51097;-59
2023/08/10 04:25:35;;;;;;;;;8.00;8.00;;;;;;;;5053442;28;50942;-59
2023/08/10 04:28:01;;;;;;;;;7.00;7.00;;;;;;;;5053265;28;50950;-59
2023/08/10 04:30:29;;;;;;;;;7.00;7.00;;;;;;;;5053564;28;50918;-59
2023/08/10 04:32:54;;;;;;;;;9.00;8.67;;;;;;;;5053025;28;51217;-58
2023/08/10 04:35:19;;;;;;;;;8.33;8.33;;;;;;;;5052907;28;51072;-58
2023/08/10 04:37:45;;;;;;;;;8.33;8.00;;;;;;;;5053232;28;50975;-58
2023/08/10 04:40:10;;;;;;;;;10.33;9.00;;;;;;;;5053441;28;50879;-58
2023/08/10 04:42:38;;;;;;;;;11.33;11.33;;;;;;;;5068477;28;51795;-58
2023/08/10 04:45:04;;;;;;;;;9.00;8.00;;;;;;;;5039907;28;51122;-58
2023/08/10 04:47:30;;;;;;;;;8.00;8.00;;;;;;;;5052867;28;51069;-58
2023/08/10 04:49:55;;;;;;;;;10.00;10.00;;;;;;;;5052733;28;51240;-62
2023/08/10 04:52:20;;;;;;;;;9.00;9.00;;;;;;;;5052443;28;52550;-61
2023/08/10 04:54:46;;;;;;;;;6.67;6.67;;;;;;;;5052672;28;50913;-59
2023/08/10 04:57:11;;;;;;;;;9.00;9.00;;;;;;;;5052789;28;51188;-59
2023/08/10 04:59:36;;;;;;;;;8.33;8.00;;;;;;;;5053120;28;51256;-60
2023/08/10 05:02:01;;;;;;;;;7.00;7.00;;;;;;;;5052770;28;51067;-60
2023/08/10 05:04:26;;;;;;;;;9.67;8.00;;;;;;;;5052544;28;51087;-59
2023/08/10 05:06:51;;;;;;;;;8.00;7.00;;;;;;;;5052903;28;51041;-59
2023/08/10 05:09:17;;;;;;;;;7.67;6.67;;;;;;;;5052774;28;50886;-60
2023/08/10 05:11:42;;;;;;;;;7.67;7.67;;;;;;;;5052479;28;51891;-60
2023/08/10 05:14:07;;;;;;;;;6.33;6.33;;;;;;;;5052725;28;50821;-60
2023/08/10 05:16:32;;;;;;;;;7.33;7.33;;;;;;;;5052665;28;51093;-60
2023/08/10 05:18:57;;;;;;;;;8.00;7.67;;;;;;;;5052385;28;51377;-58
2023/08/10 05:21:23;;;;;;;;;8.00;7.67;;;;;;;;5052230;28;51989;-60
2023/08/10 05:23:48;;;;;;;;;7.33;6.67;;;;;;;;5052446;28;50900;-58
2023/08/10 05:26:13;;;;;;;;;8.33;8.00;;;;;;;;5051250;28;51082;-59
2023/08/10 05:28:38;;;;;;;;;7.00;7.00;;;;;;;;5052430;28;51006;-59
2023/08/10 05:31:03;;;;;;;;;10.33;9.00;;;;;;;;5052174;28;51975;-58
2023/08/10 05:33:29;;;;;;;;;8.67;8.33;;;;;;;;5052184;28;50906;-58
2023/08/10 05:35:55;;;;;;;;;8.00;8.00;;;;;;;;5052056;28;50994;-58
2023/08/10 05:38:20;;;;;;;;;7.67;7.33;;;;;;;;5052328;28;50848;-58
2023/08/10 05:40:45;;;;;;;;;8.00;8.00;;;;;;;;5052112;28;50977;-59
2023/08/10 05:43:10;;;;;;;;;6.00;6.00;;;;;;;;5052148;28;51079;-59
2023/08/10 05:45:36;;;;;;;;;6.33;6.33;;;;;;;;5052413;28;51134;-58
2023/08/10 05:48:08;;;;;;;;;7.00;6.00;;;;;;;;5052429;28;51211;-60
2023/08/10 05:50:33;;;;;;;;;6.67;6.67;;;;;;;;5051704;28;51105;-59
2023/08/10 05:52:58;;;;;;;;;7.33;7.00;;;;;;;;5051924;28;51019;-59
2023/08/10 05:55:24;;;;;;;;;5.33;5.33;;;;;;;;5052373;28;50926;-59
2023/08/10 05:57:49;;;;;;;;;6.67;6.67;;;;;;;;5052300;28;51207;-59
2023/08/10 06:00:14;;;;;;;;;6.00;6.00;;;;;;;;5050487;28;51197;-59
2023/08/10 06:02:40;;;;;;;;;8.00;7.00;;;;;;;;5047528;28;51014;-59
2023/08/10 06:05:06;;;;;;;;;7.00;6.33;;;;;;;;5052073;28;50926;-59
2023/08/10 06:07:32;;;;;;;;;6.00;6.00;;;;;;;;5054982;28;51014;-59
2023/08/10 06:09:57;;;;;;;;;5.67;5.33;;;;;;;;5054667;28;51146;-59
2023/08/10 06:12:22;;;;;;;;;6.00;6.00;;;;;;;;5054745;28;51078;-59
2023/08/10 06:14:47;;;;;;;;;5.67;5.67;;;;;;;;5055525;28;50966;-59
2023/08/10 06:17:12;;;;;;;;;5.00;5.00;;;;;;;;5055519;28;51360;-59
2023/08/10 06:19:37;;;;;;;;;9.00;7.67;;;;;;;;5054910;28;51863;-59
2023/08/10 06:22:03;;;;;;;;;6.33;6.33;;;;;;;;5055231;28;51187;-59
2023/08/10 06:24:29;;;;;;;;;8.00;8.00;;;;;;;;5055374;28;51486;-59
2023/08/10 06:26:55;;;;;;;;;7.00;7.00;;;;;;;;5054917;28;50973;-59
2023/08/10 06:29:21;;;;;;;;;7.00;7.00;;;;;;;;5054915;28;51747;-59
2023/08/10 06:31:46;;;;;;;;;6.33;6.33;;;;;;;;5054785;28;51255;-59
2023/08/10 06:34:11;;;;;;;;;6.00;6.00;;;;;;;;5054831;28;50899;-59
2023/08/10 06:36:37;;;;;;;;;7.00;6.00;;;;;;;;5055130;28;51244;-59
2023/08/10 06:39:04;;;;;;;;;6.00;5.33;;;;;;;;5054834;28;51794;-59
2023/08/10 06:42:58;;;;;;;;;6.00;6.00;;;;;;;;4882010;28;93676748;-59
2023/08/10 06:45:23;;;;;;;;;7.33;6.67;;;;;;;;5055002;28;51209;-59
2023/08/10 06:47:49;;;;;;;;;8.00;7.00;;;;;;;;5054530;28;51089;-59
2023/08/10 06:50:14;;;;;;;;;6.00;6.00;;;;;;;;5054426;28;50992;-59
2023/08/10 06:52:41;;;;;;;;;4.67;4.67;;;;;;;;5070281;28;50933;-58
2023/08/10 06:55:06;;;;;;;;;5.75;5.75;;;;;;;;5054673;28;51216;-58
2023/08/10 06:57:32;;;;;;;;;7.67;7.33;;;;;;;;5054289;28;50895;-57
2023/08/10 06:59:57;;;;;;;;;5.67;5.67;;;;;;;;5054163;28;50886;-61
2023/08/10 07:02:22;;;;;;;;;6.00;6.00;;;;;;;;5069544;28;51204;-60
2023/08/10 07:04:47;;;;;;;;;6.75;6.75;;;;;;;;5054150;28;50914;-59
2023/08/10 07:07:14;;;;;;;;;6.33;6.33;;;;;;;;5053747;28;51277;-59
2023/08/10 07:09:39;;;;;;;;;8.67;8.67;;;;;;;;5053791;28;51051;-58
2023/08/10 07:12:04;;;;;;;;;6.00;6.00;;;;;;;;5053951;28;51243;-60
2023/08/10 07:14:30;;;;;;;;;8.33;6.67;;;;;;;;5054141;28;50940;-59
2023/08/10 07:16:55;;;;;;;;;5.67;5.00;;;;;;;;5053200;28;50917;-60
2023/08/10 07:19:20;;;;;;;;;5.00;5.00;;;;;;;;5053566;28;51011;-60
2023/08/10 07:21:45;;;;;;;;;3.33;3.33;;;;;;;;5053707;28;51191;-60
2023/08/10 07:24:11;;;;;;;;;8.33;7.00;;;;;;;;5053786;28;51026;-60
2023/08/10 07:26:36;;;;;;;;;5.67;5.67;;;;;;;;5053122;28;51156;-60
2023/08/10 07:29:01;;;;;;;;;7.00;7.00;;;;;;;;5053366;28;51086;-60
2023/08/10 07:31:30;;;;;;;;;6.33;6.33;;;;;;;;5052456;28;50894;-60
2023/08/10 07:33:55;;;;;;;;;6.00;6.00;;;;;;;;5053788;28;51314;-60
2023/08/10 07:36:20;;;;;;;;;5.00;5.00;;;;;;;;5053116;28;52011;-60
2023/08/10 07:38:45;;;;;;;;;6.67;6.67;;;;;;;;5053534;28;50986;-60
2023/08/10 07:41:11;;;;;;;;;5.00;4.33;;;;;;;;5053601;28;50985;-60
2023/08/10 07:43:36;;;;;;;;;6.00;6.00;;;;;;;;5053712;28;51079;-60
2023/08/10 07:46:01;;;;;;;;;5.00;5.00;;;;;;;;5053056;28;51824;-60
2023/08/10 07:48:26;;;;;;;;;5.33;5.33;;;;;;;;5053399;28;51025;-61
2023/08/10 07:50:52;;;;;;;;;6.00;5.33;;;;;;;;5053201;28;51023;-60
2023/08/10 07:53:17;;;;;;;;;6.00;5.67;;;;;;;;5053706;28;51193;-60
2023/08/10 07:55:43;;;;;;;;;6.00;6.00;;;;;;;;5053128;28;51956;-60
2023/08/10 07:58:08;;;;;;;;;6.00;6.00;;;;;;;;5053501;28;51046;-59
2023/08/10 08:00:35;;;;;;;;;6.33;6.00;;;;;;;;5053246;28;51108;-58
2023/08/10 08:03:00;;;;;;;;;8.67;8.67;;;;;;;;5053460;28;51088;-59
2023/08/10 08:05:26;;;;;;;;;4.67;4.67;;;;;;;;5052344;28;51646;-59
2023/08/10 08:07:51;;;;;;;;;6.00;5.67;;;;;;;;5052848;28;51008;-59
2023/08/10 08:10:16;;;;;;;;;5.00;5.00;;;;;;;;5053037;28;51169;-60
2023/08/10 08:12:42;;;;;;;;;5.00;5.00;;;;;;;;5066223;27;51219;-60
2023/08/10 08:15:08;;;;;;;;;2.00;2.00;;;;;;;;5051638;28;52684;-60
2023/08/10 08:17:52;;;;;;;;;6.33;5.00;;;;;;;;5052793;28;51010;-60
2023/08/10 08:20:17;;;;;;;;;5.67;5.67;;;;;;;;5052323;28;51108;-60
2023/08/10 08:22:42;;;;;;;;;4.00;4.00;;;;;;;;5051520;28;51346;-60
2023/08/10 08:25:08;;;;;;;;;4.00;4.00;;;;;;;;5052235;28;51182;-60
2023/08/10 08:27:34;;;;;;;;;5.67;5.67;;;;;;;;5051838;28;51081;-60
2023/08/10 08:29:59;;;;;;;;;3.33;3.00;;;;;;;;5052320;28;51282;-60
2023/08/10 08:32:24;;;;;;;;;5.33;5.33;;;;;;;;5052872;28;50974;-60
2023/08/10 08:34:49;;;;;;;;;5.00;4.00;;;;;;;;5051844;28;51142;-60
2023/08/10 08:37:14;;;;;;;;;4.33;4.33;;;;;;;;5052682;28;50966;-60
2023/08/10 08:39:40;;;;;;;;;7.00;6.00;;;;;;;;5052174;28;50907;-60
2023/08/10 08:42:07;;;;;;;;;5.33;4.67;;;;;;;;5052462;28;51079;-59
2023/08/10 08:44:32;;;;;;;;;4.00;4.00;;;;;;;;5052072;28;51885;-60
2023/08/10 08:46:57;;;;;;;;;6.00;5.00;;;;;;;;5052251;28;51007;-59
2023/08/10 08:49:23;;;;;;;;;5.33;5.00;;;;;;;;5052218;28;50913;-60
2023/08/10 08:51:49;;;;;;;;;5.00;5.00;;;;;;;;5052469;28;50894;-60
2023/08/10 08:54:14;;;;;;;;;5.67;5.33;;;;;;;;5052079;28;50866;-60
2023/08/10 08:56:39;;;;;;;;;4.33;4.33;;;;;;;;5052498;28;50885;-60
2023/08/10 08:59:05;;;;;;;;;4.00;4.00;;;;;;;;5052307;28;50885;-60
2023/08/10 09:01:30;;;;;;;;;4.67;4.67;;;;;;;;5052746;28;51143;-60
2023/08/10 09:03:55;;;;;;;;;5.00;5.00;;;;;;;;5051729;28;52046;-59
2023/08/10 09:06:20;;;;;;;;;5.33;5.00;;;;;;;;5051663;28;50974;-58
2023/08/10 09:08:45;;;;;;;;;7.00;6.67;;;;;;;;5051715;28;51216;-59
2023/08/10 09:11:11;;;;;;;;;3.33;3.00;;;;;;;;5052332;28;51256;-60
2023/08/10 09:13:36;;;;;;;;;4.00;4.00;;;;;;;;5050380;28;53858;-60
2023/08/10 09:16:04;;;;;;;;;4.33;4.33;;;;;;;;5052075;28;50927;-60
2023/08/10 09:18:33;;;;;;;;;5.00;5.00;;;;;;;;5052060;28;51188;-61
2023/08/10 09:21:10;;;;;;;;;5.00;3.67;;;;;;;;5051952;28;50798;-60
2023/08/10 09:23:35;;;;;;;;;3.00;3.00;;;;;;;;5051448;28;51767;-60
2023/08/10 09:26:06;;;;;;;;;5.00;5.00;;;;;;;;5051985;28;50969;-60
2023/08/10 09:28:35;;;;;;;;;2.67;2.00;;;;;;;;5051720;28;51040;-60
2023/08/10 09:31:00;;;;;;;;;5.00;3.33;;;;;;;;5051946;28;50922;-61
2023/08/10 09:33:31;;;;;;;;;2.00;2.00;;;;;;;;5051508;28;50935;-61
2023/08/10 09:36:03;;;;;;;;;4.00;4.00;;;;;;;;5051352;28;51195;-60
2023/08/10 09:38:28;;;;;;;;;4.00;3.00;;;;;;;;5052004;28;51151;-60
2023/08/10 09:41:23;;;;;;;;;3.00;3.00;;;;;;;;5055178;28;50944;-59
2023/08/10 09:43:48;;;;;;;;;2.33;2.00;;;;;;;;5054834;28;52095;-58
2023/08/10 09:46:14;;;;;;;;;2.00;2.00;;;;;;;;5054717;28;50905;-59
2023/08/10 09:48:44;;;;;;;;;5.00;5.00;;;;;;;;5054865;28;50982;-59
2023/08/10 09:51:10;;;;;;;;;4.00;4.00;;;;;;;;5054792;28;51234;-58
2023/08/10 09:53:36;;;;;;;;;3.33;3.33;;;;;;;;5054839;28;51768;-59
2023/08/10 09:56:02;;;;;;;;;5.00;4.00;;;;;;;;5054780;28;51073;-59
2023/08/10 09:58:27;;;;;;;;;3.67;3.67;;;;;;;;5070138;28;51119;-59
2023/08/10 10:00:53;;;;;;;;;3.00;3.00;;;;;;;;5054402;28;51268;-62
2023/08/10 10:03:19;;;;;;;;;7.33;7.33;;;;;;;;5054319;28;51857;-59
2023/08/10 10:05:45;;;;;;;;;3.33;2.67;;;;;;;;5054290;28;51174;-59
2023/08/10 10:08:11;;;;;;;;;3.67;3.33;;;;;;;;5054580;28;51065;-59
2023/08/10 10:10:37;;;;;;;;;5.00;5.00;;;;;;;;5054353;28;51023;-60
2023/08/10 10:13:04;;;;;;;;;5.67;5.67;;;;;;;;5052966;28;54242;-60
2023/08/10 10:15:29;;;;;;;;;3.67;3.67;;;;;;;;5053311;27;50978;-60
2023/08/10 10:17:55;;;;;;;;;4.00;3.67;;;;;;;;5054457;28;50828;-60
2023/08/10 10:20:20;;;;;;;;;4.00;3.67;;;;;;;;5054427;28;51211;-60
2023/08/10 10:22:46;;;;;;;;;4.00;3.00;;;;;;;;5054117;28;51867;-60
2023/08/10 10:25:17;;;;;;;;;1.00;1.00;;;;;;;;5054310;28;51081;-60
2023/08/10 10:27:46;;;;;;;;;4.00;4.00;;;;;;;;5054402;28;50924;-61
2023/08/10 10:30:15;;;;;;;;;5.33;4.67;;;;;;;;5054405;28;50828;-60
2023/08/10 10:32:45;;;;;;;;;2.00;2.00;;;;;;;;5053963;28;50985;-60
2023/08/10 10:35:10;;;;;;;;;3.00;3.00;;;;;;;;5053668;28;51161;-60
2023/08/10 10:37:37;;;;;;;;;3.33;3.33;;;;;;;;5053860;28;50982;-61
2023/08/10 10:40:18;;;;;;;;;3.00;3.00;;;;;;;;5054137;28;51214;-60
2023/08/10 10:43:02;;;;;;;;;4.00;4.00;;;;;;;;5053550;28;50908;-60
2023/08/10 10:45:28;;;;;;;;;4.00;4.00;;;;;;;;5053531;28;51004;-60
2023/08/10 10:47:58;;;;;;;;;5.00;4.33;;;;;;;;5068744;28;51169;-60
2023/08/10 10:50:24;;;;;;;;;2.00;2.00;;;;;;;;5052908;28;50984;-58
2023/08/10 10:52:55;;;;;;;;;5.00;4.33;;;;;;;;5051198;28;52972;-60
2023/08/10 10:55:22;;;;;;;;;3.00;3.00;;;;;;;;5053541;28;51060;-60
2023/08/10 10:57:50;;;;;;;;;3.00;3.00;;;;;;;;5047153;28;51219;-58
2023/08/10 11:00:19;;;;;;;;;4.00;4.00;;;;;;;;5050483;28;51048;-59
2023/08/10 11:02:45;;;;;;;;;5.00;5.00;;;;;;;;5049256;28;51278;-60
2023/08/10 11:05:12;;;;;;;;;5.00;4.00;;;;;;;;5062192;28;53047;-61
2023/08/10 11:07:41;;;;;;;;;6.00;5.00;;;;;;;;5049973;28;51270;-59
2023/08/10 11:10:06;;;;;;;;;6.33;6.00;;;;;;;;5052577;28;50927;-59
2023/08/10 11:12:32;;;;;;;;;2.00;2.00;;;;;;;;5052510;28;51512;-59
2023/08/10 11:14:57;;;;;;;;;3.00;3.00;;;;;;;;5050690;28;50882;-58
2023/08/10 11:17:25;;;;;;;;;2.00;2.00;;;;;;;;5051594;28;50918;-60
2023/08/10 11:19:51;;;;;;;;;16.00;10.00;;;;;;;;5047765;28;51251;-59
2023/08/10 11:22:17;;;;;;;;;4.00;4.00;;;;;;;;5053065;28;51682;-63
2023/08/10 11:24:43;;;;;;;;;2.00;2.00;;;;;;;;5050815;28;52141;-66
2023/08/10 11:27:09;;;;;;;;;3.00;3.00;;;;;;;;5051922;28;51183;-67
2023/08/10 11:29:34;;;;;;;;;2.00;2.00;;;;;;;;5049964;28;51460;-68
2023/08/10 11:31:59;;;;;;;;;4.00;4.00;;;;;;;;5051627;28;52818;-68
2023/08/10 11:34:25;;;;;;;;;2.67;2.67;;;;;;;;5052657;28;51009;-67
2023/08/10 11:36:51;;;;;;;;;3.67;3.67;;;;;;;;5053260;28;51125;-67
2023/08/10 11:39:16;;;;;;;;;7.67;5.67;;;;;;;;5052311;28;51122;-68
2023/08/10 11:41:43;;;;;;;;;4.67;4.67;;;;;;;;5053025;28;51999;-70
2023/08/10 11:44:08;;;;;;;;;4.00;4.00;;;;;;;;5050113;28;51139;-69
2023/08/10 11:46:34;;;;;;;;;2.00;2.00;;;;;;;;5051483;28;50832;-74
2023/08/10 11:48:59;;;;;;;;;3.00;3.00;;;;;;;;5052863;28;51395;-74
2023/08/10 11:51:33;;;;;;;;;3.00;3.00;;;;;;;;5051445;28;52297;-73
2023/08/10 11:54:07;;;;;;;;;9.33;7.33;;;;;;;;5052249;28;50903;-73
2023/08/10 11:56:32;;;;;;;;;3.00;3.00;;;;;;;;5041823;28;50934;-72
2023/08/10 11:58:58;;;;;;;;;5.00;5.00;;;;;;;;5052827;28;50866;-73
2023/08/10 12:01:23;;;;;;;;;4.00;4.00;;;;;;;;5052449;28;51987;-73
2023/08/10 12:03:50;;;;;;;;;6.33;4.33;;;;;;;;5051226;28;50933;-72
2023/08/10 12:06:15;;;;;;;;;3.00;3.00;;;;;;;;5051374;28;51284;-72
2023/08/10 12:08:41;;;;;;;;;2.00;2.00;;;;;;;;5052614;28;50775;-71
2023/08/10 12:11:11;;;;;;;;;2.67;2.67;;;;;;;;5052470;28;51901;-71
2023/08/10 12:13:49;;;;;;;;;3.00;3.00;;;;;;;;5052595;28;50950;-72
2023/08/10 12:16:16;;;;;;;;;3.33;3.33;;;;;;;;5050984;28;51117;-70
2023/08/10 12:18:42;;;;;;;;;3.00;3.00;;;;;;;;5050739;28;51236;-67
2023/08/10 12:21:07;;;;;;;;;2.33;2.33;;;;;;;;5051839;28;51691;-66
2023/08/10 12:23:32;;;;;;;;;5.00;5.00;;;;;;;;5052201;28;51064;-67
2023/08/10 12:25:58;;;;;;;;;36.50;32.75;;;;;;;;5050539;28;51017;-68
2023/08/10 12:28:23;;;;;;;;;4.50;4.00;;;;;;;;5052672;28;51269;-68
2023/08/10 12:30:49;;;;;;;;;5.00;5.00;;;;;;;;5052254;28;51158;-67
2023/08/10 12:33:15;;;;;;;;;4.67;4.67;;;;;;;;5052173;28;51030;-65
2023/08/10 12:35:41;;;;;;;;;4.00;4.00;;;;;;;;5049955;28;50858;-66
2023/08/10 12:38:07;;;;;;;;;3.00;3.00;;;;;;;;5052564;28;51299;-67
2023/08/10 12:40:33;;;;;;;;;4.00;4.00;;;;;;;;5050455;28;51205;-68
2023/08/10 12:42:58;;;;;;;;;4.33;4.33;;;;;;;;5051687;28;51052;-68
2023/08/10 12:45:24;;;;;;;;;3.00;3.00;;;;;;;;5052193;28;51149;-68
2023/08/10 12:47:49;;;;;;;;;3.67;3.00;;;;;;;;5050315;28;51030;-65
2023/08/10 12:50:16;;;;;;;;;4.33;4.33;;;;;;;;5049627;28;51497;-64
2023/08/10 12:52:46;;;;;;;;;3.00;2.00;;;;;;;;5049413;28;51209;-65
2023/08/10 12:55:12;;;;;;;;;3.67;3.33;;;;;;;;5048791;28;51184;-63
2023/08/10 12:57:39;;;;;;;;;4.00;4.00;;;;;;;;5048753;28;50993;-62
2023/08/10 13:00:11;;;;;;;;;4.33;4.33;;;;;;;;5050271;28;51898;-62
2023/08/10 13:02:37;;;;;;;;;5.00;5.00;;;;;;;;5050214;28;51003;-62
2023/08/10 13:05:03;;;;;;;;;4.00;4.00;;;;;;;;5051397;28;50969;-63
2023/08/10 13:07:30;;;;;;;;;4.00;4.00;;;;;;;;5051775;28;50857;-64
2023/08/10 13:09:55;;;;;;;;;7.00;7.00;;;;;;;;5049629;28;54020;-62
2023/08/10 13:12:20;;;;;;;;;2.33;2.33;;;;;;;;5051552;28;51109;-62
2023/08/10 13:14:45;;;;;;;;;4.00;3.00;;;;;;;;5053410;28;51052;-61
2023/08/10 13:17:10;;;;;;;;;4.00;3.33;;;;;;;;5055467;28;50838;-61
2023/08/10 13:19:36;;;;;;;;;5.00;5.00;;;;;;;;5054863;28;51755;-66
2023/08/10 13:22:02;;;;;;;;;5.67;5.67;;;;;;;;5054985;28;51025;-62
2023/08/10 13:24:27;;;;;;;;;4.67;4.67;;;;;;;;5055112;28;51419;-62
2023/08/10 13:26:52;;;;;;;;;3.00;3.00;;;;;;;;5054947;28;51375;-62
2023/08/10 13:29:18;;;;;;;;;5.00;5.00;;;;;;;;5053384;28;52896;-61
2023/08/10 13:31:43;;;;;;;;;5.00;4.00;;;;;;;;5055038;28;50972;-62
2023/08/10 13:34:11;;;;;;;;;3.00;3.00;;;;;;;;5055189;28;51055;-62
2023/08/10 13:36:36;;;;;;;;;7.00;6.33;;;;;;;;5055109;28;51123;-62
2023/08/10 13:39:03;;;;;;;;;7.33;7.33;;;;;;;;5054477;28;51703;-62
2023/08/10 13:41:28;;;;;;;;;3.00;3.00;;;;;;;;5054273;28;51000;-62
2023/08/10 13:43:53;;;;;;;;;4.67;4.00;;;;;;;;5054384;28;51011;-62
2023/08/10 13:46:19;;;;;;;;;3.00;3.00;;;;;;;;5054595;28;51367;-62
2023/08/10 13:48:44;;;;;;;;;3.67;3.67;;;;;;;;5054141;28;52021;-62
2023/08/10 13:51:09;;;;;;;;;3.67;3.67;;;;;;;;5054719;28;50981;-62
2023/08/10 13:53:35;;;;;;;;;4.33;4.33;;;;;;;;5054825;28;51524;-62
2023/08/10 13:56:00;;;;;;;;;4.00;4.00;;;;;;;;5054744;28;51367;-64
2023/08/10 13:58:25;;;;;;;;;5.33;4.67;;;;;;;;5054407;28;50949;-63
2023/08/10 14:00:50;;;;;;;;;3.00;3.00;;;;;;;;5054308;28;50934;-63
2023/08/10 14:03:15;;;;;;;;;2.67;2.67;;;;;;;;5055038;28;50838;-63
2023/08/10 14:05:41;;;;;;;;;3.00;3.00;;;;;;;;5054511;28;50814;-63
2023/08/10 14:08:06;;;;;;;;;4.00;3.33;;;;;;;;5053933;28;51030;-63
2023/08/10 14:10:31;;;;;;;;;5.00;4.00;;;;;;;;5054182;28;50977;-63
2023/08/10 14:12:57;;;;;;;;;2.00;2.00;;;;;;;;5054620;28;50932;-63
2023/08/10 14:15:22;;;;;;;;;3.00;2.33;;;;;;;;5054636;28;51361;-70
2023/08/10 14:17:47;;;;;;;;;3.00;3.00;;;;;;;;5050731;28;51585;-69
2023/08/10 14:20:12;;;;;;;;;3.67;3.67;;;;;;;;5053880;28;51013;-69
2023/08/10 14:22:38;;;;;;;;;3.33;3.33;;;;;;;;5053984;28;51015;-69
2023/08/10 14:25:03;;;;;;;;;3.00;3.00;;;;;;;;5052401;28;51396;-69
2023/08/10 14:27:29;;;;;;;;;4.00;4.00;;;;;;;;5034841;28;53102;-67
2023/08/10 14:29:54;;;;;;;;;4.67;4.00;;;;;;;;5053251;28;51131;-67